createdAt,value
2023-03-26T00:03:57.459Z,12.63
2023-03-26T00:09:00.408Z,10.87
2023-03-26T00:14:03.774Z,10.64
2023-03-26T00:19:06.372Z,12.20
2023-03-26T00:24:14.894Z,13.02
2023-03-26T00:29:18.585Z,13.53
2023-03-26T00:34:22.892Z,13.05
2023-03-26T00:39:25.417Z,11.16
2023-03-26T00:44:27.861Z,10.00
2023-03-26T00:49:31.883Z,10.04
2023-03-26T00:54:35.151Z,11.52
2023-03-26T00:59:38.133Z,12.44
2023-03-26T01:04:48.388Z,13.02
2023-03-26T01:09:51.491Z,13.25
2023-03-26T01:15:00.590Z,13.20
2023-03-26T01:20:08.199Z,11.58
2023-03-26T01:25:10.986Z,10.20
2023-03-26T01:30:17.941Z,10.10
2023-03-26T01:35:40.732Z,11.60
2023-03-26T01:40:58.001Z,12.62
2023-03-26T01:46:05.233Z,13.20
2023-03-26T01:51:09.111Z,13.38
2023-03-26T01:56:35.367Z,12.99
2023-03-26T02:01:47.332Z,11.04
2023-03-26T02:07:14.855Z,10.55
2023-03-26T02:12:19.763Z,11.71
2023-03-26T02:17:24.168Z,12.53
2023-03-26T02:22:29.708Z,12.95
2023-03-26T02:27:33.809Z,12.95
2023-03-26T02:32:36.365Z,13.20
2023-03-26T02:37:39.721Z,13.43
2023-03-26T02:42:42.210Z,12.80
2023-03-26T02:47:45.884Z,10.93
2023-03-26T02:52:49.796Z,10.44
2023-03-26T02:57:52.275Z,11.28
2023-03-26T03:02:57.740Z,12.00
2023-03-26T03:08:00.437Z,12.34
2023-03-26T03:13:05.746Z,12.54
2023-03-26T03:18:08.464Z,12.78
2023-03-26T03:23:11.470Z,12.93
2023-03-26T03:28:14.070Z,13.01
2023-03-26T03:33:19.157Z,13.10
2023-03-26T03:38:21.807Z,13.18
2023-03-26T03:43:24.302Z,13.17
2023-03-26T03:48:27.929Z,12.38
2023-03-26T03:53:30.512Z,10.61
2023-03-26T03:58:34.491Z,10.63
2023-03-26T04:03:39.098Z,11.67
2023-03-26T04:08:41.880Z,12.25
2023-03-26T04:13:44.719Z,12.58
2023-03-26T04:18:47.373Z,12.75
2023-03-26T04:23:49.905Z,12.85
2023-03-26T04:28:56.363Z,12.96
2023-03-26T04:34:14.205Z,13.08
2023-03-26T04:39:17.540Z,13.18
2023-03-26T04:44:22.545Z,13.17
2023-03-26T04:49:25.300Z,13.28
2023-03-26T04:54:27.895Z,13.27
2023-03-26T04:59:34.935Z,12.01
2023-03-26T05:04:40.840Z,10.41
2023-03-26T05:09:43.500Z,10.14
2023-03-26T05:14:46.097Z,11.35
2023-03-26T05:19:48.736Z,12.00
2023-03-26T05:24:51.500Z,12.30
2023-03-26T05:30:00.989Z,12.52
2023-03-26T05:35:04.224Z,12.79
2023-03-26T05:40:12.204Z,12.94
2023-03-26T05:45:15.590Z,13.07
2023-03-26T05:50:18.240Z,13.26
2023-03-26T05:55:21.912Z,13.35
2023-03-26T06:00:24.988Z,13.61
2023-03-26T06:05:32.444Z,13.17
2023-03-26T06:10:38.756Z,11.58
2023-03-26T06:15:41.317Z,11.66
2023-03-26T06:20:44.382Z,12.80
2023-03-26T06:25:47.716Z,13.52
2023-03-26T06:30:51.592Z,14.10
2023-03-26T06:35:54.529Z,13.94
2023-03-26T06:41:13.079Z,12.52
2023-03-26T06:46:16.383Z,12.29
2023-03-26T06:51:18.925Z,13.26
2023-03-26T06:56:21.438Z,13.94
2023-03-26T07:01:24.000Z,14.08
2023-03-26T07:06:27.735Z,13.81
2023-03-26T07:11:30.574Z,12.40
2023-03-26T07:16:33.130Z,11.54
2023-03-26T07:21:36.430Z,12.44
2023-03-26T07:26:47.896Z,13.32
2023-03-26T07:32:03.744Z,13.69
2023-03-26T07:37:28.401Z,13.39
2023-03-26T07:42:41.029Z,12.00
2023-03-26T07:47:45.242Z,12.05
2023-03-26T07:52:48.254Z,13.36
2023-03-26T07:58:20.703Z,13.69
2023-03-26T08:03:59.444Z,12.38
2023-03-26T08:09:37.880Z,13.14
2023-03-26T08:14:41.026Z,14.32
2023-03-26T08:19:44.718Z,13.88
2023-03-26T08:25:17.772Z,13.62
2023-03-26T08:30:23.006Z,15.02
2023-03-26T08:35:27.454Z,14.01
2023-03-26T08:41:02.033Z,12.76
2023-03-26T08:46:07.335Z,12.95
2023-03-26T08:51:28.296Z,13.94
2023-03-26T08:56:51.387Z,13.72
2023-03-26T09:02:01.217Z,12.33
2023-03-26T09:07:20.556Z,12.96
2023-03-26T09:12:26.191Z,14.15
2023-03-26T09:18:00.879Z,13.18
2023-03-26T09:23:10.904Z,12.55
2023-03-26T09:28:29.361Z,13.43
2023-03-26T09:33:55.813Z,13.86
2023-03-26T09:39:14.256Z,12.45
2023-03-26T09:44:39.154Z,11.81
2023-03-26T09:49:49.050Z,13.19
2023-03-26T09:55:23.453Z,14.20
2023-03-26T10:00:47.771Z,15.21
2023-03-26T10:06:06.873Z,15.48
2023-03-26T10:11:28.307Z,14.10
2023-03-26T10:16:56.649Z,13.14
2023-03-26T10:22:32.324Z,13.22
2023-03-26T10:27:51.037Z,15.01
2023-03-26T10:33:14.446Z,15.36
2023-03-26T10:38:32.885Z,14.08
2023-03-26T10:44:09.560Z,13.29
2023-03-26T10:49:26.086Z,13.54
2023-03-26T10:54:59.748Z,14.89
2023-03-26T11:00:13.126Z,15.24
2023-03-26T11:05:41.911Z,14.01
2023-03-26T11:10:50.859Z,13.56
2023-03-26T11:16:02.713Z,15.03
2023-03-26T11:21:18.993Z,15.27
2023-03-26T11:26:28.282Z,14.12
2023-03-26T11:31:33.903Z,13.08
2023-03-26T11:36:43.779Z,12.26
2023-03-26T11:41:48.478Z,12.15
2023-03-26T11:46:58.913Z,13.66
2023-03-26T11:52:02.752Z,14.60
2023-03-26T11:57:16.003Z,13.77
2023-03-26T12:02:38.569Z,13.33
2023-03-26T12:08:01.062Z,14.91
2023-03-26T12:13:22.661Z,14.73
2023-03-26T12:18:27.736Z,12.94
2023-03-26T12:24:02.463Z,11.46
2023-03-26T12:29:11.185Z,11.33
2023-03-26T12:34:17.624Z,12.72
2023-03-26T12:40:06.516Z,13.73
2023-03-26T12:44:59.937Z,14.87
2023-03-26T12:50:03.732Z,14.88
2023-03-26T12:55:12.313Z,13.56
2023-03-26T13:00:30.137Z,12.69
2023-03-26T13:06:11.813Z,12.93
2023-03-26T13:11:27.930Z,14.71
2023-03-26T13:16:46.613Z,15.01
2023-03-26T13:21:56.586Z,13.93
2023-03-26T13:27:26.302Z,13.11
2023-03-26T13:32:46.752Z,12.62
2023-03-26T13:37:55.945Z,12.54
2023-03-26T13:43:30.268Z,13.97
2023-03-26T13:48:56.015Z,15.21
2023-03-26T13:54:17.499Z,14.96
2023-03-26T13:59:39.574Z,13.72
2023-03-26T14:04:52.388Z,12.84
2023-03-26T14:10:06.044Z,12.10
2023-03-26T14:15:16.288Z,11.81
2023-03-26T14:20:49.717Z,13.14
2023-03-26T14:26:25.003Z,14.70
2023-03-26T14:31:36.023Z,14.09
2023-03-26T14:36:59.091Z,12.81
2023-03-26T14:42:19.743Z,11.96
2023-03-26T14:47:24.484Z,11.57
2023-03-26T14:52:39.395Z,12.49
2023-03-26T14:58:14.354Z,13.85
2023-03-26T15:03:39.865Z,13.94
2023-03-26T15:09:13.748Z,12.52
2023-03-26T15:14:49.349Z,11.77
2023-03-26T15:20:11.616Z,11.28
2023-03-26T15:25:38.567Z,11.63
2023-03-26T15:31:06.519Z,13.40
2023-03-26T15:36:53.058Z,14.00
2023-03-26T15:42:01.813Z,12.79
2023-03-26T15:47:31.379Z,12.05
2023-03-26T15:52:37.062Z,11.37
2023-03-26T15:58:02.587Z,10.82
2023-03-26T16:03:11.086Z,11.07
2023-03-26T16:08:23.250Z,12.82
2023-03-26T16:13:31.310Z,13.59
2023-03-26T16:18:42.308Z,13.37
2023-03-26T16:23:47.676Z,11.98
2023-03-26T16:28:52.758Z,11.12
2023-03-26T16:34:14.200Z,10.47
2023-03-26T16:39:24.178Z,10.66
2023-03-26T16:44:42.708Z,12.22
2023-03-26T16:50:13.892Z,13.12
2023-03-26T16:55:20.074Z,13.78
2023-03-26T17:00:31.370Z,13.10
2023-03-26T17:05:39.958Z,11.60
2023-03-26T17:10:56.886Z,10.70
2023-03-26T17:16:18.752Z,10.03
2023-03-26T17:22:04.629Z,9.48
2023-03-26T17:27:24.107Z,9.77
2023-03-26T17:33:02.662Z,11.51
2023-03-26T17:38:28.109Z,12.44
2023-03-26T17:43:46.058Z,12.79
2023-03-26T17:48:58.514Z,13.09
2023-03-26T17:54:01.679Z,13.49
2023-03-26T17:59:11.264Z,13.76
2023-03-26T18:04:19.766Z,13.26
2023-03-26T18:09:45.632Z,11.63
2023-03-26T18:15:20.454Z,10.52
2023-03-26T18:20:27.409Z,10.45
2023-03-26T18:25:33.910Z,11.69
2023-03-26T18:30:46.867Z,12.38
2023-03-26T18:35:56.088Z,12.80
2023-03-26T18:40:58.900Z,13.11
2023-03-26T18:46:03.349Z,13.30
2023-03-26T18:51:10.134Z,13.51
2023-03-26T18:56:44.692Z,13.03
2023-03-26T19:01:48.789Z,11.24
2023-03-26T19:06:55.081Z,10.12
2023-03-26T19:12:06.667Z,9.86
2023-03-26T19:17:11.537Z,11.06
2023-03-26T19:22:14.308Z,11.81
2023-03-26T19:27:18.294Z,12.21
2023-03-26T19:32:32.388Z,12.44
2023-03-26T19:37:54.442Z,11.81
2023-03-26T19:42:58.007Z,10.04
2023-03-26T19:48:12.242Z,9.55
2023-03-26T19:53:31.381Z,10.72
2023-03-26T20:03:58.148Z,10.35
2023-03-26T20:09:01.115Z,8.85
2023-03-26T20:14:15.866Z,7.94
2023-03-26T20:19:19.097Z,7.30
2023-03-26T20:24:23.906Z,7.47
2023-03-26T20:29:28.590Z,8.90
2023-03-26T20:34:32.046Z,9.83
2023-03-26T20:39:34.640Z,10.48
2023-03-26T20:44:37.481Z,10.15
2023-03-26T20:49:40.283Z,8.62
2023-03-26T20:54:42.814Z,7.58
2023-03-26T20:59:45.583Z,6.86
2023-03-26T21:04:48.211Z,6.70
2023-03-26T21:09:51.146Z,7.33
2023-03-26T21:14:55.853Z,8.04
2023-03-26T21:20:07.735Z,9.14
2023-03-26T21:25:35.412Z,9.18
2023-03-26T21:30:38.233Z,7.79
2023-03-26T21:35:41.896Z,7.02
2023-03-26T21:40:52.969Z,6.43
2023-03-26T21:46:02.185Z,5.89
2023-03-26T21:51:05.818Z,5.48
2023-03-26T21:56:14.364Z,5.14
2023-03-26T22:01:45.451Z,4.83
2023-03-26T22:06:56.609Z,5.35
2023-03-26T22:11:59.088Z,7.44
2023-03-26T22:17:01.697Z,8.40
2023-03-26T22:22:04.270Z,8.22
2023-03-26T22:27:07.692Z,6.80
2023-03-26T22:32:10.449Z,5.89
2023-03-26T22:37:13.513Z,5.24
2023-03-26T22:42:15.976Z,4.73
2023-03-26T22:47:18.469Z,4.35
2023-03-26T22:52:21.116Z,4.04
2023-03-26T22:57:24.199Z,4.50
2023-03-26T23:02:27.087Z,6.72
2023-03-26T23:07:31.524Z,8.08
2023-03-26T23:12:34.032Z,8.11
2023-03-26T23:17:37.798Z,6.50
2023-03-26T23:22:42.435Z,5.42
2023-03-26T23:27:44.893Z,4.73
2023-03-26T23:32:47.539Z,4.27
2023-03-26T23:37:50.794Z,3.87
2023-03-26T23:42:53.271Z,4.09
2023-03-26T23:47:56.100Z,5.96
2023-03-26T23:52:58.941Z,7.36
2023-03-26T23:58:03.245Z,8.08
